Indian Mills, New Jersey
Current Conditions -  °F | °C
As of 1:54 PM on Wednesday 26 Nov 2014 (Local Time) from KVAY Reporting Station
Moderate Rain Moderate Rain  
Wind Chill: -4°   Ceiling: 800
Heat Index:   Visibility: 2.5mi
Dew Point:   Wind: 15mph
Humidity: 92%   Direction: 20°NNE
Pressure: 29.86"   Gusts: NA
Location:  39.7955°N, 74.6301°W
Report Text: KVAY 261854Z AUTO 02013KT 2 1/2SM RA BR BKN008 OVC042 02/01 A2986 RMK AO2 PRESFR SLP111 P0014 T00170006
Loading
Personal Weather Stations






























Interactive Weather Map New forecast layout! Learn more

10-Day Weather Forecast

Advertisements
Track Severe Weather on mobile